createdAt,value
2018-12-29T00:00:42.385Z,54.97
2018-12-29T00:03:26.516Z,61.33
2018-12-29T00:06:11.578Z,59.60
2018-12-29T00:08:56.114Z,62.13
2018-12-29T00:11:39.682Z,60.63
2018-12-29T00:20:06.109Z,59.97
2018-12-29T00:22:50.400Z,60.03
2018-12-29T00:25:33.826Z,64.50
2018-12-29T00:28:23.415Z,59.30
2018-12-29T00:31:11.179Z,54.60
2018-12-29T00:33:54.506Z,58.60
2018-12-29T00:36:38.400Z,64.17
2018-12-29T00:39:27.232Z,56.03
2018-12-29T00:42:14.287Z,54.87
2018-12-29T00:48:07.487Z,58.10
2018-12-29T00:50:51.639Z,56.23
2018-12-29T00:53:36.877Z,57.57
2018-12-29T00:56:22.441Z,57.83
2018-12-29T00:59:10.314Z,59.10
2018-12-29T01:01:53.763Z,61.23
2018-12-29T01:04:39.365Z,60.13
2018-12-29T01:10:16.131Z,62.73
2018-12-29T01:13:02.740Z,60.17
2018-12-29T01:18:45.397Z,60.93
2018-12-29T01:21:29.272Z,60.27
2018-12-29T01:24:17.336Z,59.80
2018-12-29T01:27:04.683Z,59.03
2018-12-29T01:30:07.783Z,60.57
2018-12-29T01:33:11.024Z,61.40
2018-12-29T01:36:04.801Z,59.57
2018-12-29T01:38:48.266Z,57.33
2018-12-29T01:44:16.212Z,63.70
2018-12-29T01:47:00.185Z,61.97
2018-12-29T01:49:45.415Z,60.20
2018-12-29T01:52:19.016Z,60.73
2018-12-29T01:55:03.126Z,62.30
2018-12-29T01:57:47.950Z,59.07
2018-12-29T02:00:32.001Z,65.70
2018-12-29T02:03:17.834Z,60.80
2018-12-29T02:06:01.553Z,57.87
2018-12-29T02:08:50.278Z,60.70
2018-12-29T02:14:37.668Z,63.80
2018-12-29T02:17:21.368Z,64.90
2018-12-29T02:20:08.353Z,60.37
2018-12-29T02:22:52.036Z,64.03
2018-12-29T02:25:35.481Z,61.67
2018-12-29T02:28:18.598Z,63.67
2018-12-29T02:31:02.465Z,63.77
2018-12-29T02:33:46.623Z,60.43
2018-12-29T02:36:30.010Z,62.00
2018-12-29T02:39:13.479Z,61.50
2018-12-29T02:42:00.116Z,60.50
2018-12-29T02:44:43.686Z,67.13
2018-12-29T02:47:29.790Z,65.80
2018-12-29T02:50:17.601Z,61.60
2018-12-29T02:53:01.815Z,63.00
2018-12-29T02:55:47.746Z,60.97
2018-12-29T02:58:31.530Z,62.03
2018-12-29T03:01:15.106Z,59.97
2018-12-29T03:03:58.021Z,59.23
2018-12-29T03:06:41.497Z,63.10
2018-12-29T03:09:27.703Z,64.17
2018-12-29T03:12:11.007Z,62.13
2018-12-29T03:14:54.756Z,63.10
2018-12-29T03:17:36.696Z,65.93
2018-12-29T03:20:20.740Z,59.73
2018-12-29T03:23:04.535Z,63.17
2018-12-29T03:25:47.834Z,60.20
2018-12-29T03:28:31.514Z,60.47
2018-12-29T03:31:15.276Z,63.10
2018-12-29T03:33:59.621Z,61.00
2018-12-29T03:36:48.122Z,65.53
2018-12-29T03:39:37.153Z,72.47
2018-12-29T03:42:20.222Z,65.17
2018-12-29T03:45:04.192Z,64.20
2018-12-29T03:47:53.393Z,69.60
2018-12-29T03:50:40.985Z,66.10
2018-12-29T03:53:24.048Z,73.40
2018-12-29T03:56:09.110Z,68.33
2018-12-29T03:58:52.397Z,74.70
2018-12-29T04:01:36.152Z,74.27
2018-12-29T04:04:20.238Z,73.83
2018-12-29T04:07:03.570Z,69.00
2018-12-29T04:09:49.392Z,69.37
2018-12-29T04:12:34.733Z,77.00
2018-12-29T04:15:18.646Z,72.67
2018-12-29T04:18:01.716Z,72.00
2018-12-29T04:20:45.610Z,72.57
2018-12-29T04:23:30.735Z,70.17
2018-12-29T04:26:18.761Z,71.77
2018-12-29T04:29:02.633Z,74.67
2018-12-29T04:31:46.545Z,79.57
2018-12-29T04:34:30.235Z,70.60
2018-12-29T04:37:13.062Z,72.60
2018-12-29T04:42:53.593Z,69.90
2018-12-29T04:45:37.303Z,70.77
2018-12-29T04:51:21.615Z,72.53
2018-12-29T04:54:05.126Z,72.27
2018-12-29T04:59:40.288Z,67.57
2018-12-29T05:02:24.111Z,65.10
2018-12-29T05:05:08.097Z,72.13
2018-12-29T05:07:51.490Z,70.93
2018-12-29T05:10:40.519Z,66.30
2018-12-29T05:13:23.879Z,72.57
2018-12-29T05:16:12.814Z,74.40
2018-12-29T05:21:53.056Z,76.87
2018-12-29T05:24:41.719Z,69.80
2018-12-29T05:27:30.017Z,76.13
2018-12-29T05:30:17.568Z,75.60
2018-12-29T05:33:00.989Z,74.63
2018-12-29T05:35:44.203Z,74.33
2018-12-29T05:38:28.194Z,76.30
2018-12-29T05:41:11.318Z,82.57
2018-12-29T05:43:54.451Z,85.67
2018-12-29T05:46:40.342Z,78.43
2018-12-29T05:49:24.008Z,72.60
2018-12-29T05:52:07.438Z,76.37
2018-12-29T05:54:51.388Z,71.80
2018-12-29T05:57:35.026Z,72.53
2018-12-29T06:00:18.674Z,79.27
2018-12-29T06:03:01.906Z,75.73
2018-12-29T06:05:45.540Z,77.23
2018-12-29T06:08:29.238Z,81.00
2018-12-29T06:11:17.972Z,72.53
2018-12-29T06:14:02.562Z,82.20
2018-12-29T06:16:35.433Z,80.97
2018-12-29T06:19:18.284Z,87.87
2018-12-29T06:22:03.679Z,82.30
2018-12-29T06:24:47.716Z,78.33
2018-12-29T06:30:26.262Z,82.53
2018-12-29T06:33:09.800Z,80.07
2018-12-29T06:38:42.760Z,80.70
2018-12-29T06:44:25.055Z,75.87
2018-12-29T06:50:01.647Z,79.27
2018-12-29T06:52:45.959Z,82.90
2018-12-29T06:55:29.357Z,74.17
2018-12-29T06:58:13.527Z,86.80
2018-12-29T07:00:57.314Z,79.27
2018-12-29T07:03:41.273Z,78.30
2018-12-29T07:06:28.527Z,80.50
2018-12-29T07:09:15.599Z,77.03
2018-12-29T07:17:40.804Z,82.50
2018-12-29T07:23:09.810Z,78.80
2018-12-29T07:25:53.719Z,81.07
2018-12-29T07:28:37.602Z,78.50
2018-12-29T07:31:23.086Z,85.27
2018-12-29T07:34:08.341Z,83.33
2018-12-29T07:36:51.054Z,80.43
2018-12-29T07:39:36.584Z,81.83
2018-12-29T07:42:20.328Z,75.77
2018-12-29T07:45:06.173Z,85.00
2018-12-29T07:47:50.523Z,80.80
2018-12-29T07:50:34.338Z,82.73
2018-12-29T07:53:17.698Z,77.57
2018-12-29T08:01:53.354Z,76.33
2018-12-29T08:04:36.950Z,82.03
2018-12-29T08:07:23.576Z,80.13
2018-12-29T08:10:07.472Z,75.77
2018-12-29T08:12:55.613Z,75.37
2018-12-29T08:15:44.783Z,73.93
2018-12-29T08:18:29.236Z,82.73
2018-12-29T08:21:16.877Z,78.90
2018-12-29T08:24:00.566Z,76.83
2018-12-29T08:26:44.692Z,74.73
2018-12-29T08:29:28.415Z,72.33
2018-12-29T08:32:16.723Z,70.90
2018-12-29T08:35:00.175Z,79.60
2018-12-29T08:37:43.158Z,73.37
2018-12-29T08:40:32.169Z,72.37
2018-12-29T08:43:17.875Z,73.97
2018-12-29T08:46:03.877Z,73.57
2018-12-29T08:48:54.903Z,76.77
2018-12-29T08:57:19.557Z,76.30
2018-12-29T09:03:02.075Z,72.93
2018-12-29T09:05:45.815Z,78.73
2018-12-29T09:08:31.302Z,83.97
2018-12-29T09:14:38.765Z,73.53
2018-12-29T09:17:27.490Z,79.23
2018-12-29T09:20:12.804Z,71.77
2018-12-29T09:22:56.204Z,72.93
2018-12-29T09:25:39.862Z,68.03
2018-12-29T09:28:24.182Z,66.97
2018-12-29T09:31:09.581Z,64.73
2018-12-29T09:33:53.008Z,69.37
2018-12-29T09:36:36.744Z,68.30
2018-12-29T09:39:20.376Z,70.77
2018-12-29T09:42:06.819Z,70.77
2018-12-29T09:44:55.287Z,60.43
2018-12-29T09:47:42.732Z,68.03
2018-12-29T09:53:39.773Z,60.90
2018-12-29T09:56:24.984Z,67.20
2018-12-29T09:59:08.254Z,65.47
2018-12-29T10:01:56.631Z,64.67
2018-12-29T10:07:28.413Z,56.93
2018-12-29T10:13:04.770Z,62.17
2018-12-29T10:15:52.269Z,60.27
2018-12-29T10:18:40.007Z,63.70
2018-12-29T10:21:28.642Z,59.53
2018-12-29T10:24:33.431Z,57.17
2018-12-29T10:27:25.027Z,62.43
2018-12-29T10:30:08.365Z,58.60
2018-12-29T10:32:53.030Z,57.03
2018-12-29T10:35:39.661Z,62.60
2018-12-29T10:38:27.584Z,60.90
2018-12-29T10:41:11.425Z,62.40
2018-12-29T10:43:57.995Z,53.90
2018-12-29T10:46:41.843Z,58.37
2018-12-29T10:49:32.216Z,54.40
2018-12-29T10:52:17.534Z,53.57
2018-12-29T10:55:05.550Z,55.73
2018-12-29T10:57:54.096Z,55.53
2018-12-29T11:00:42.650Z,54.73
2018-12-29T11:03:26.672Z,62.50
2018-12-29T11:09:17.363Z,54.70
2018-12-29T11:12:00.626Z,60.60
2018-12-29T11:14:45.234Z,54.50
2018-12-29T11:17:31.563Z,54.10
2018-12-29T11:20:17.686Z,56.13
2018-12-29T11:26:03.695Z,54.57
2018-12-29T11:28:36.774Z,50.70
2018-12-29T11:31:28.323Z,55.43
2018-12-29T11:34:12.013Z,57.77
2018-12-29T11:36:59.996Z,49.83
2018-12-29T11:39:44.272Z,48.60
2018-12-29T11:42:29.326Z,49.10
2018-12-29T11:45:17.294Z,49.07
2018-12-29T11:48:06.030Z,48.60
2018-12-29T11:53:45.709Z,47.13
2018-12-29T11:56:30.838Z,49.30
2018-12-29T11:59:13.907Z,44.87
2018-12-29T12:01:57.233Z,40.67
2018-12-29T12:04:41.625Z,42.30
2018-12-29T12:07:30.501Z,41.20
2018-12-29T12:10:13.647Z,44.73
2018-12-29T12:12:56.881Z,42.20
2018-12-29T12:15:42.871Z,43.50
2018-12-29T12:18:26.174Z,40.60
2018-12-29T12:23:56.480Z,36.57
2018-12-29T12:26:40.756Z,35.53
2018-12-29T12:29:26.853Z,38.10
2018-12-29T12:32:18.305Z,40.10
2018-12-29T12:35:03.927Z,41.43
2018-12-29T12:37:52.130Z,37.93
2018-12-29T12:40:39.692Z,35.90
2018-12-29T12:43:25.618Z,37.10
2018-12-29T12:45:58.580Z,37.13
2018-12-29T12:48:52.220Z,39.80
2018-12-29T12:51:36.321Z,36.07
2018-12-29T12:54:19.979Z,35.33
2018-12-29T12:57:04.265Z,36.07
2018-12-29T12:59:50.184Z,34.30
2018-12-29T13:02:36.700Z,33.10
2018-12-29T13:05:21.710Z,33.30
2018-12-29T13:08:06.697Z,30.13
2018-12-29T13:13:38.551Z,33.63
2018-12-29T13:16:23.311Z,35.20
2018-12-29T13:19:12.109Z,37.43
2018-12-29T13:22:01.719Z,38.20
2018-12-29T13:24:48.022Z,33.97
2018-12-29T13:27:36.990Z,34.30
2018-12-29T13:30:25.808Z,33.70
2018-12-29T13:33:10.894Z,35.13
2018-12-29T13:38:44.609Z,36.43
2018-12-29T13:41:29.475Z,39.20
2018-12-29T13:44:16.776Z,36.27
2018-12-29T13:47:02.163Z,35.33
2018-12-29T13:52:34.080Z,34.27
2018-12-29T13:57:59.836Z,34.30
2018-12-29T14:03:43.860Z,30.27
2018-12-29T14:09:19.929Z,32.93
2018-12-29T14:12:04.121Z,33.20
2018-12-29T14:17:58.886Z,30.83
2018-12-29T14:20:42.199Z,29.80
2018-12-29T14:26:12.410Z,32.00
2018-12-29T14:31:58.092Z,29.17
2018-12-29T14:34:41.375Z,31.47
2018-12-29T14:37:28.783Z,30.17
2018-12-29T14:40:01.195Z,34.20
2018-12-29T14:42:45.276Z,32.07
2018-12-29T14:48:20.524Z,29.80
2018-12-29T14:51:04.443Z,29.97
2018-12-29T14:53:50.479Z,30.03
2018-12-29T14:56:34.345Z,29.50
2018-12-29T14:59:19.443Z,28.70
2018-12-29T15:02:02.811Z,31.47
2018-12-29T15:04:49.788Z,25.83
2018-12-29T15:07:35.060Z,26.27
2018-12-29T15:13:19.081Z,22.67
2018-12-29T15:16:05.453Z,26.67
2018-12-29T15:21:47.467Z,21.00
2018-12-29T15:24:39.792Z,25.90
2018-12-29T15:27:22.923Z,23.00
2018-12-29T15:30:09.164Z,26.17
2018-12-29T15:32:52.731Z,29.27
2018-12-29T15:35:38.320Z,31.90
2018-12-29T15:38:25.187Z,33.53
2018-12-29T15:41:15.380Z,39.27
2018-12-29T15:43:59.550Z,36.60
2018-12-29T15:46:43.806Z,37.03
2018-12-29T15:52:27.152Z,40.57
2018-12-29T15:55:12.615Z,40.77
2018-12-29T15:57:59.009Z,37.10
2018-12-29T16:03:32.369Z,35.00
2018-12-29T16:06:16.450Z,37.40
2018-12-29T16:09:00.881Z,37.17
2018-12-29T16:20:19.867Z,35.10
2018-12-29T16:22:56.127Z,38.60
2018-12-29T16:25:29.649Z,38.23
2018-12-29T16:28:05.099Z,34.23
2018-12-29T16:30:37.709Z,33.13
2018-12-29T16:33:10.984Z,37.70
2018-12-29T16:35:43.160Z,31.23
2018-12-29T16:38:16.491Z,31.37
2018-12-29T16:40:57.633Z,32.53
2018-12-29T16:43:27.967Z,36.33
2018-12-29T16:46:03.763Z,34.47
2018-12-29T16:48:36.059Z,33.23
2018-12-29T16:51:08.719Z,31.47
2018-12-29T16:53:42.186Z,30.10
2018-12-29T16:56:14.758Z,32.00
2018-12-29T16:58:49.362Z,28.67
2018-12-29T17:01:22.476Z,30.43
2018-12-29T17:03:55.369Z,32.93
2018-12-29T17:06:28.947Z,32.37
2018-12-29T17:09:01.995Z,29.23
2018-12-29T17:11:37.262Z,27.83
2018-12-29T17:14:09.720Z,34.20
2018-12-29T17:16:41.971Z,30.33
2018-12-29T17:19:14.810Z,30.10
2018-12-29T17:21:48.125Z,33.90
2018-12-29T17:24:20.670Z,32.53
2018-12-29T17:26:55.927Z,34.13
2018-12-29T17:29:28.984Z,32.37
2018-12-29T17:32:02.110Z,32.03
2018-12-29T17:34:34.710Z,32.50
2018-12-29T17:37:09.583Z,31.70
2018-12-29T17:39:43.623Z,32.80
2018-12-29T17:42:18.788Z,37.97
2018-12-29T17:44:51.061Z,35.37
2018-12-29T17:47:23.765Z,37.43
2018-12-29T17:49:58.894Z,36.30
2018-12-29T17:52:32.022Z,33.33
2018-12-29T17:55:04.889Z,31.37
2018-12-29T17:57:37.419Z,35.37
2018-12-29T18:00:10.031Z,33.23
2018-12-29T18:02:42.459Z,36.07
2018-12-29T18:05:15.279Z,36.30
2018-12-29T18:07:52.178Z,37.27
2018-12-29T18:10:24.751Z,34.50
2018-12-29T18:12:57.747Z,35.83
2018-12-29T18:15:30.792Z,37.50
2018-12-29T18:18:03.076Z,40.70
2018-12-29T18:20:41.104Z,36.33
2018-12-29T18:23:13.568Z,39.43
2018-12-29T18:25:45.654Z,39.30
2018-12-29T18:28:17.785Z,39.17
2018-12-29T18:30:51.669Z,43.77
2018-12-29T18:33:26.930Z,42.30
2018-12-29T18:36:01.417Z,46.67
2018-12-29T18:38:34.211Z,43.53
2018-12-29T18:41:07.031Z,42.27
2018-12-29T18:43:39.776Z,41.30
2018-12-29T18:46:11.976Z,46.03
2018-12-29T18:48:47.158Z,45.50
2018-12-29T18:51:19.413Z,42.73
2018-12-29T18:53:52.426Z,46.83
2018-12-29T18:56:26.835Z,47.57
2018-12-29T18:59:01.550Z,44.43
2018-12-29T19:01:33.918Z,49.67
2018-12-29T19:04:05.927Z,51.50
2018-12-29T19:06:38.253Z,49.70
2018-12-29T19:09:11.169Z,48.77
2018-12-29T19:11:44.219Z,50.23
2018-12-29T19:14:17.247Z,48.23
2018-12-29T19:16:49.483Z,49.73
2018-12-29T19:19:26.317Z,52.30
2018-12-29T19:21:59.344Z,51.03
2018-12-29T19:24:31.946Z,50.03
2018-12-29T19:27:06.113Z,51.40
2018-12-29T19:29:39.006Z,54.47
2018-12-29T19:32:15.399Z,53.77
2018-12-29T19:34:48.054Z,54.87
2018-12-29T19:37:20.968Z,54.60
2018-12-29T19:39:52.728Z,55.03
2018-12-29T19:42:24.875Z,55.33
2018-12-29T19:44:57.341Z,51.40
2018-12-29T19:47:34.696Z,54.00
2018-12-29T19:50:09.353Z,49.07
2018-12-29T19:52:43.160Z,55.77
2018-12-29T19:55:15.942Z,57.37
2018-12-29T19:57:51.470Z,49.53
2018-12-29T20:00:26.496Z,59.87
2018-12-29T20:02:59.131Z,53.20
2018-12-29T20:05:34.298Z,53.53
2018-12-29T20:08:06.856Z,55.73
2018-12-29T20:11:09.623Z,60.13
2018-12-29T20:13:43.189Z,60.03
2018-12-29T20:16:16.056Z,59.40
2018-12-29T20:18:48.852Z,59.53
2018-12-29T20:21:21.202Z,52.87
2018-12-29T20:23:57.546Z,62.90
2018-12-29T20:26:30.913Z,62.13
2018-12-29T20:29:11.988Z,50.77
2018-12-29T20:31:44.746Z,60.90
2018-12-29T20:34:40.284Z,42.77
2018-12-29T20:37:16.280Z,39.80
2018-12-29T20:39:51.792Z,32.70
2018-12-29T20:42:25.764Z,34.37
2018-12-29T20:44:58.500Z,37.50
2018-12-29T20:47:31.495Z,33.40
2018-12-29T20:50:11.330Z,35.20
2018-12-29T20:52:40.309Z,38.97
2018-12-29T20:55:14.848Z,36.30
2018-12-29T20:57:47.302Z,34.30
2018-12-29T21:00:21.510Z,37.17
2018-12-29T21:02:53.971Z,34.57
2018-12-29T21:05:26.286Z,31.57
2018-12-29T21:07:59.553Z,29.13
2018-12-29T21:10:50.815Z,23.17
2018-12-29T21:13:23.140Z,20.90
2018-12-29T21:15:55.170Z,29.43
2018-12-29T21:18:28.349Z,23.37
2018-12-29T21:21:00.772Z,21.60
2018-12-29T21:23:33.628Z,22.27
2018-12-29T21:26:10.620Z,23.33
2018-12-29T21:28:42.660Z,21.97
2018-12-29T21:31:14.768Z,21.57
2018-12-29T21:33:47.351Z,21.43
2018-12-29T21:36:19.877Z,18.10
2018-12-29T21:38:53.616Z,25.17
2018-12-29T21:41:27.925Z,21.93
2018-12-29T21:44:00.456Z,20.20
2018-12-29T21:46:34.508Z,23.83
2018-12-29T21:49:06.961Z,18.73
2018-12-29T21:51:38.922Z,20.03
2018-12-29T21:54:11.214Z,18.50
2018-12-29T21:56:43.963Z,18.27
2018-12-29T21:59:17.116Z,18.67
2018-12-29T22:01:51.528Z,18.77
2018-12-29T22:04:24.787Z,16.17
2018-12-29T22:06:57.649Z,18.90
2018-12-29T22:09:29.893Z,20.57
2018-12-29T22:12:03.054Z,13.67
2018-12-29T22:14:38.661Z,16.33
2018-12-29T22:17:12.189Z,21.30
2018-12-29T22:19:46.044Z,19.27
2018-12-29T22:22:19.864Z,15.57
2018-12-29T22:24:53.840Z,15.47
2018-12-29T22:27:41.359Z,14.27
2018-12-29T22:30:16.674Z,24.13
2018-12-29T22:32:49.165Z,14.13
2018-12-29T22:35:21.823Z,18.57
2018-12-29T22:37:56.352Z,24.17
2018-12-29T22:40:29.540Z,16.87
2018-12-29T22:43:03.408Z,16.53
2018-12-29T22:45:37.275Z,19.60
2018-12-29T22:48:10.943Z,25.20
2018-12-29T22:50:45.072Z,14.80
2018-12-29T22:53:46.172Z,17.17
2018-12-29T22:56:20.981Z,16.53
2018-12-29T22:58:55.589Z,17.13
2018-12-29T23:01:31.059Z,23.93
2018-12-29T23:04:10.365Z,17.27
2018-12-29T23:06:50.479Z,14.00
2018-12-29T23:09:25.438Z,17.03
2018-12-29T23:11:59.945Z,19.00
2018-12-29T23:14:33.074Z,21.63
2018-12-29T23:17:06.531Z,15.37
2018-12-29T23:19:41.193Z,28.03
2018-12-29T23:22:31.391Z,19.37
2018-12-29T23:25:06.594Z,17.63
2018-12-29T23:27:41.208Z,16.10
2018-12-29T23:30:39.336Z,19.33
2018-12-29T23:33:13.368Z,19.53
2018-12-29T23:35:54.109Z,17.97
2018-12-29T23:38:52.295Z,18.20
2018-12-29T23:41:25.407Z,22.27
2018-12-29T23:43:59.078Z,18.80
2018-12-29T23:46:33.634Z,18.37
2018-12-29T23:49:07.315Z,18.77
2018-12-29T23:51:41.866Z,20.33
2018-12-29T23:54:15.156Z,21.43
2018-12-29T23:56:49.648Z,22.30
2018-12-29T23:59:25.584Z,20.50
